Ocean Rover — KRLM — position and weather

sailwx.info

Track history (hours):
 
Tides and Currents Weather Stations Pressure Air Temp Water Temp Dewpoint Dewpoint Depression Visibility Wind Speed Wind Dir Waves Ship Positions

Ocean Rover

Owner: AMERICAN SEAFOODS CO, SEATTLE, WA. More information available from US FCC via Universal Licensing System and Coast Guard Vessel Documentation Center.

Last reported at 2018-Jun-19 06:31 UTC. Time now 2018-Jun-19 06:44 UTC.
Position N 43°56' W 124°25'.

Length 64 m; draft 9.6 m.

Type: Fishing. MMSI: 368032000.

Date/timePositionNaut miles runAvg speedWind from/ knotsBaromVisibWave heightAir tempDewpointWater temp
2018-Jun-19 06:31N 43°56' W 124°25'1 1.4
2018-Jun-19 05:42N 43°56' W 124°26'1 5.4
2018-Jun-19 05:30N 43°55' W 124°26'3 5.1
2018-Jun-19 05:00N 43°53' W 124°27'4 3.5
2018-Jun-19 03:53N 43°54' W 124°21'1 2.2
2018-Jun-19 03:23N 43°53' W 124°21'4 5.0
2018-Jun-19 02:31N 43°56' W 124°25'010.4
2018-Jun-19 02:30N 43°56' W 124°25'4 7.8
2018-Jun-19 01:57N 43°52' W 124°23'1 3.1
2018-Jun-19 01:30N 43°53' W 124°22'3 4.4
2018-Jun-19 00:56N 43°51' W 124°20'4 4.7
2018-Jun-19 00:00N 43°55' W 124°20'2 1.6
2018-Jun-18 23:03N 43°54' W 124°22'1 8.4
2018-Jun-18 22:58N 43°55' W 124°23'15 1.5
2018-Jun-18 12:58N 43°40' W 124°20'13 4.2
2018-Jun-18 09:48N 43°51' W 124°31'4 1.3
2018-Jun-18 07:07N 43°48' W 124°35'1 4.9
2018-Jun-18 06:59N 43°49' W 124°35'2 3.2
2018-Jun-18 06:28N 43°50' W 124°37'1 3.0
2018-Jun-18 06:00N 43°50' W 124°35'11 2.1
2018-Jun-18 00:43N 43°44' W 124°21'2 7.3
2018-Jun-18 00:26N 43°43' W 124°20'1 2.4
2018-Jun-17 23:54N 43°41' W 124°20'3 1.9
2018-Jun-17 22:17N 43°44' W 124°21'5 2.3
2018-Jun-17 20:10N 43°40' W 124°19'2 4.7
2018-Jun-17 19:46N 43°38' W 124°18'  
2018-Jun-15 11:49N 45°20' W 124°38'411.4
2018-Jun-15 11:30N 45°23' W 124°40'611.3
2018-Jun-15 10:57N 45°29' W 124°43'511.7
2018-Jun-15 10:30N 45°34' W 124°44'1011.3
2018-Jun-15 09:36N 45°44' W 124°45'112.2
2018-Jun-15 09:30N 45°45' W 124°46'612.1
2018-Jun-15 09:00N 45°51' W 124°47'612.0
2018-Jun-15 08:29N 45°57' W 124°50'611.9
2018-Jun-15 08:00N 46°03' W 124°52'811.4
2018-Jun-15 07:19N 46°11' W 124°54'411.8
2018-Jun-15 06:59N 46°15' W 124°55'510.6
2018-Jun-15 06:30N 46°20' W 124°56'611.9
2018-Jun-15 06:00N 46°25' W 124°57'612.0
2018-Jun-15 05:31N 46°31' W 124°58'612.1
2018-Jun-15 05:00N 46°37' W 124°58'612.1
2018-Jun-15 04:30N 46°44' W 124°58'611.5
2018-Jun-15 04:00N 46°49' W 124°58'3 2.8
2018-Jun-15 02:58N 46°52' W 124°57'1 2.7
2018-Jun-15 02:28N 46°51' W 124°57'1 2.5
2018-Jun-15 02:00N 46°51' W 124°58'3 4.6
2018-Jun-15 01:20N 46°54' W 124°55'2 5.9
2018-Jun-15 00:58N 46°55' W 124°52'3 4.5
2018-Jun-15 00:21N 46°54' W 124°56'3 8.6
2018-Jun-15 00:00N 46°52' W 124°59'1 2.3
2018-Jun-14 23:30N 46°51' W 124°59'510.2
2018-Jun-14 23:00N 46°47' W 124°54'510.8
2018-Jun-14 22:30N 46°44' W 124°47'510.9
2018-Jun-14 22:00N 46°40' W 124°41'510.6
2018-Jun-14 21:30N 46°37' W 124°35'3 6.8
2018-Jun-14 21:00N 46°34' W 124°37'611.1
2018-Jun-14 20:30N 46°38' W 124°42'5 9.3
2018-Jun-14 20:00N 46°40' W 124°48'5 9.6
2018-Jun-14 19:30N 46°44' W 124°50'5 9.9
2018-Jun-14 19:00N 46°48' W 124°55'7 7.9
2018-Jun-14 18:10N 46°54' W 124°56'0 0.7
2018-Jun-14 17:57N 46°55' W 124°56'0 0.4
2018-Jun-14 17:30N 46°55' W 124°56'2 3.6
2018-Jun-14 16:55N 46°54' W 124°59'2 5.4
2018-Jun-14 16:30N 46°52' W 124°59'3 5.1
2018-Jun-14 16:00N 46°52' W 124°56'2 2.5
2018-Jun-14 15:06N 46°54' W 124°54'0 3.6
2018-Jun-14 15:00N 46°54' W 124°54'2 2.8
2018-Jun-14 14:22N 46°55' W 124°56'3 5.7
2018-Jun-14 13:53N 46°57' W 124°59'93 3.0
2018-Jun-13 06:47N 48°30' W 125°00'412.5
2018-Jun-13 06:30N 48°31' W 124°55'612.9
2018-Jun-13 06:00N 48°31' W 124°45'713.4
2018-Jun-13 05:30N 48°28' W 124°36'713.5
2018-Jun-13 05:00N 48°26' W 124°26'713.6
2018-Jun-13 04:30N 48°23' W 124°17'713.7
2018-Jun-13 04:00N 48°20' W 124°07'4712.4
2018-Jun-13 00:15N 48°21' W 122°57'311.5
2018-Jun-13 00:00N 48°22' W 122°54'710.8
2018-Jun-12 23:24N 48°26' W 122°46'4 9.8
2018-Jun-12 22:59N 48°30' W 122°43'4 8.5
2018-Jun-12 22:29N 48°34' W 122°40'4 8.5
2018-Jun-12 22:00N 48°37' W 122°37'9 1.5
2018-Jun-12 15:50N 48°46' W 122°31'0 0.0
2018-Jun-12 02:55N 48°46' W 122°31'4 0.2
2018-Jun-11 07:49N 48°42' W 122°33'1 3.4
2018-Jun-11 07:29N 48°41' W 122°33'2 4.1
2018-Jun-11 06:59N 48°39' W 122°34'3 5.3
2018-Jun-11 06:30N 48°37' W 122°37'3 5.6
2018-Jun-11 05:59N 48°35' W 122°40'4 7.6
2018-Jun-11 05:29N 48°31' W 122°42'510.2
2018-Jun-11 05:00N 48°27' W 122°45'51 9.1
2018-Jun-10 23:22N 48°14' W 123°59'5 9.9
2018-Jun-10 22:50N 48°17' W 124°06'5 9.5
2018-Jun-10 22:20N 48°19' W 124°13'3 9.8
2018-Jun-10 21:59N 48°20' W 124°17'5 9.9
2018-Jun-10 21:30N 48°22' W 124°24'4 9.0
2018-Jun-10 21:00N 48°24' W 124°30'4 8.6
2018-Jun-10 20:30N 48°26' W 124°36'5 9.1
2018-Jun-10 20:00N 48°28' W 124°42'4 8.7
2018-Jun-10 19:30N 48°28' W 124°49'4 8.5
2018-Jun-10 18:59N 48°28' W 124°55'4 8.6
2018-Jun-10 18:29N 48°27' W 125°01'92 8.5
2018-Jun-10 07:41N 46°55' W 125°01'4 7.4
2018-Jun-10 07:12N 46°52' W 125°00'1 4.3
2018-Jun-10 06:59N 46°52' W 124°59'2 3.8
2018-Jun-10 06:30N 46°52' W 124°56'10 0.4
2018-Jun-09 07:34N 46°59' W 124°46'0 0.2
2018-Jun-09 07:18N 46°59' W 124°46'2 5.2
2018-Jun-09 06:59N 46°58' W 124°46'  
Track history (hours):
 
Tides and Currents Weather Stations Pressure Air Temp Water Temp Dewpoint Dewpoint Depression Visibility Wind Speed Wind Dir Waves Ship Positions

Ocean Rover

Owner: AMERICAN SEAFOODS CO, SEATTLE, WA. More information available from US FCC via Universal Licensing System and Coast Guard Vessel Documentation Center.

Last reported at 2018-Jun-19 06:31 UTC. Time now 2018-Jun-19 06:44 UTC.
Position N 43°56' W 124°25'.

Length 64 m; draft 9.6 m.

Type: Fishing. MMSI: 368032000.

Date/timePositionNaut miles runAvg speedWind from/ knotsBaromVisibWave heightAir tempDewpointWater temp
2018-Jun-19 06:31N 43°56' W 124°25'1 1.4
2018-Jun-19 05:42N 43°56' W 124°26'1 5.4
2018-Jun-19 05:30N 43°55' W 124°26'3 5.1
2018-Jun-19 05:00N 43°53' W 124°27'4 3.5
2018-Jun-19 03:53N 43°54' W 124°21'1 2.2
2018-Jun-19 03:23N 43°53' W 124°21'4 5.0
2018-Jun-19 02:31N 43°56' W 124°25'010.4
2018-Jun-19 02:30N 43°56' W 124°25'4 7.8
2018-Jun-19 01:57N 43°52' W 124°23'1 3.1
2018-Jun-19 01:30N 43°53' W 124°22'3 4.4
2018-Jun-19 00:56N 43°51' W 124°20'4 4.7
2018-Jun-19 00:00N 43°55' W 124°20'2 1.6
2018-Jun-18 23:03N 43°54' W 124°22'1 8.4
2018-Jun-18 22:58N 43°55' W 124°23'15 1.5
2018-Jun-18 12:58N 43°40' W 124°20'13 4.2
2018-Jun-18 09:48N 43°51' W 124°31'4 1.3
2018-Jun-18 07:07N 43°48' W 124°35'1 4.9
2018-Jun-18 06:59N 43°49' W 124°35'2 3.2
2018-Jun-18 06:28N 43°50' W 124°37'1 3.0
2018-Jun-18 06:00N 43°50' W 124°35'11 2.1
2018-Jun-18 00:43N 43°44' W 124°21'2 7.3
2018-Jun-18 00:26N 43°43' W 124°20'1 2.4
2018-Jun-17 23:54N 43°41' W 124°20'3 1.9
2018-Jun-17 22:17N 43°44' W 124°21'5 2.3
2018-Jun-17 20:10N 43°40' W 124°19'2 4.7
2018-Jun-17 19:46N 43°38' W 124°18'  
2018-Jun-15 11:49N 45°20' W 124°38'411.4
2018-Jun-15 11:30N 45°23' W 124°40'611.3
2018-Jun-15 10:57N 45°29' W 124°43'511.7
2018-Jun-15 10:30N 45°34' W 124°44'1011.3
2018-Jun-15 09:36N 45°44' W 124°45'112.2
2018-Jun-15 09:30N 45°45' W 124°46'612.1
2018-Jun-15 09:00N 45°51' W 124°47'612.0
2018-Jun-15 08:29N 45°57' W 124°50'611.9
2018-Jun-15 08:00N 46°03' W 124°52'811.4
2018-Jun-15 07:19N 46°11' W 124°54'411.8
2018-Jun-15 06:59N 46°15' W 124°55'510.6
2018-Jun-15 06:30N 46°20' W 124°56'611.9
2018-Jun-15 06:00N 46°25' W 124°57'612.0
2018-Jun-15 05:31N 46°31' W 124°58'612.1
2018-Jun-15 05:00N 46°37' W 124°58'612.1
2018-Jun-15 04:30N 46°44' W 124°58'611.5
2018-Jun-15 04:00N 46°49' W 124°58'3 2.8
2018-Jun-15 02:58N 46°52' W 124°57'1 2.7
2018-Jun-15 02:28N 46°51' W 124°57'1 2.5
2018-Jun-15 02:00N 46°51' W 124°58'3 4.6
2018-Jun-15 01:20N 46°54' W 124°55'2 5.9
2018-Jun-15 00:58N 46°55' W 124°52'3 4.5
2018-Jun-15 00:21N 46°54' W 124°56'3 8.6
2018-Jun-15 00:00N 46°52' W 124°59'1 2.3
2018-Jun-14 23:30N 46°51' W 124°59'510.2
2018-Jun-14 23:00N 46°47' W 124°54'510.8
2018-Jun-14 22:30N 46°44' W 124°47'510.9
2018-Jun-14 22:00N 46°40' W 124°41'510.6
2018-Jun-14 21:30N 46°37' W 124°35'3 6.8
2018-Jun-14 21:00N 46°34' W 124°37'611.1
2018-Jun-14 20:30N 46°38' W 124°42'5 9.3
2018-Jun-14 20:00N 46°40' W 124°48'5 9.6
2018-Jun-14 19:30N 46°44' W 124°50'5 9.9
2018-Jun-14 19:00N 46°48' W 124°55'7 7.9
2018-Jun-14 18:10N 46°54' W 124°56'0 0.7
2018-Jun-14 17:57N 46°55' W 124°56'0 0.4
2018-Jun-14 17:30N 46°55' W 124°56'2 3.6
2018-Jun-14 16:55N 46°54' W 124°59'2 5.4
2018-Jun-14 16:30N 46°52' W 124°59'3 5.1
2018-Jun-14 16:00N 46°52' W 124°56'2 2.5
2018-Jun-14 15:06N 46°54' W 124°54'0 3.6
2018-Jun-14 15:00N 46°54' W 124°54'2 2.8
2018-Jun-14 14:22N 46°55' W 124°56'3 5.7
2018-Jun-14 13:53N 46°57' W 124°59'93 3.0
2018-Jun-13 06:47N 48°30' W 125°00'412.5
2018-Jun-13 06:30N 48°31' W 124°55'612.9
2018-Jun-13 06:00N 48°31' W 124°45'713.4
2018-Jun-13 05:30N 48°28' W 124°36'713.5
2018-Jun-13 05:00N 48°26' W 124°26'713.6
2018-Jun-13 04:30N 48°23' W 124°17'713.7
2018-Jun-13 04:00N 48°20' W 124°07'4712.4
2018-Jun-13 00:15N 48°21' W 122°57'311.5
2018-Jun-13 00:00N 48°22' W 122°54'710.8
2018-Jun-12 23:24N 48°26' W 122°46'4 9.8
2018-Jun-12 22:59N 48°30' W 122°43'4 8.5
2018-Jun-12 22:29N 48°34' W 122°40'4 8.5
2018-Jun-12 22:00N 48°37' W 122°37'9 1.5
2018-Jun-12 15:50N 48°46' W 122°31'0 0.0
2018-Jun-12 02:55N 48°46' W 122°31'4 0.2
2018-Jun-11 07:49N 48°42' W 122°33'1 3.4
2018-Jun-11 07:29N 48°41' W 122°33'2 4.1
2018-Jun-11 06:59N 48°39' W 122°34'3 5.3
2018-Jun-11 06:30N 48°37' W 122°37'3 5.6
2018-Jun-11 05:59N 48°35' W 122°40'4 7.6
2018-Jun-11 05:29N 48°31' W 122°42'510.2
2018-Jun-11 05:00N 48°27' W 122°45'51 9.1
2018-Jun-10 23:22N 48°14' W 123°59'5 9.9
2018-Jun-10 22:50N 48°17' W 124°06'5 9.5
2018-Jun-10 22:20N 48°19' W 124°13'3 9.8
2018-Jun-10 21:59N 48°20' W 124°17'5 9.9
2018-Jun-10 21:30N 48°22' W 124°24'4 9.0
2018-Jun-10 21:00N 48°24' W 124°30'4 8.6
2018-Jun-10 20:30N 48°26' W 124°36'5 9.1
2018-Jun-10 20:00N 48°28' W 124°42'4 8.7
2018-Jun-10 19:30N 48°28' W 124°49'4 8.5
2018-Jun-10 18:59N 48°28' W 124°55'4 8.6
2018-Jun-10 18:29N 48°27' W 125°01'92 8.5
2018-Jun-10 07:41N 46°55' W 125°01'4 7.4
2018-Jun-10 07:12N 46°52' W 125°00'1 4.3
2018-Jun-10 06:59N 46°52' W 124°59'2 3.8
2018-Jun-10 06:30N 46°52' W 124°56'10 0.4
2018-Jun-09 07:34N 46°59' W 124°46'0 0.2
2018-Jun-09 07:18N 46°59' W 124°46'2 5.2
2018-Jun-09 06:59N 46°58' W 124°46'  

Dump ship's entire track history